createdAt,value
2023-03-19T00:00:40.031Z,16.20
2023-03-19T00:06:04.099Z,16.70
2023-03-19T00:11:11.649Z,15.20
2023-03-19T00:16:17.956Z,17.30
2023-03-19T00:21:32.463Z,16.30
2023-03-19T00:26:36.385Z,16.50
2023-03-19T00:31:41.308Z,16.10
2023-03-19T00:37:18.628Z,17.50
2023-03-19T00:42:22.249Z,17.20
2023-03-19T00:47:38.432Z,16.60
2023-03-19T00:52:42.159Z,16.60
2023-03-19T00:57:46.250Z,16.80
2023-03-19T01:03:35.862Z,17.00
2023-03-19T01:09:24.972Z,16.60
2023-03-19T01:15:11.794Z,17.30
2023-03-19T01:21:03.832Z,17.30
2023-03-19T01:26:08.472Z,17.00
2023-03-19T01:31:12.644Z,16.80
2023-03-19T01:36:35.406Z,17.10
2023-03-19T01:41:41.268Z,17.60
2023-03-19T01:47:17.556Z,16.90
2023-03-19T01:53:01.405Z,16.50
2023-03-19T01:58:26.064Z,17.30
2023-03-19T02:04:18.208Z,15.70
2023-03-19T02:09:24.817Z,17.00
2023-03-19T02:14:28.306Z,17.10
2023-03-19T02:19:44.089Z,16.70
2023-03-19T02:25:05.374Z,16.60
2023-03-19T02:30:26.935Z,16.80
2023-03-19T02:35:34.848Z,16.40
2023-03-19T02:40:52.208Z,17.80
2023-03-19T02:46:13.415Z,16.80
2023-03-19T02:51:58.757Z,17.50
2023-03-19T02:57:07.215Z,17.30
2023-03-19T03:02:16.661Z,17.20
2023-03-19T03:07:43.223Z,17.30
2023-03-19T03:12:47.407Z,17.10
2023-03-19T03:17:51.013Z,18.10
2023-03-19T03:22:56.883Z,17.10
2023-03-19T03:28:33.723Z,17.60
2023-03-19T03:34:03.745Z,17.60
2023-03-19T03:39:09.758Z,17.90
2023-03-19T03:44:36.380Z,17.40
2023-03-19T03:50:00.182Z,16.70
2023-03-19T03:55:05.000Z,17.70
2023-03-19T04:00:51.563Z,17.50
2023-03-19T04:06:24.417Z,17.10
2023-03-19T04:12:19.788Z,17.30
2023-03-19T04:18:24.194Z,17.50
2023-03-19T04:24:07.025Z,17.30
2023-03-19T04:29:29.557Z,17.10
2023-03-19T04:34:58.737Z,17.70
2023-03-19T04:40:43.137Z,17.60
2023-03-19T04:45:51.153Z,17.40
2023-03-19T04:51:21.345Z,17.50
2023-03-19T04:57:15.809Z,18.10
2023-03-19T05:03:22.267Z,16.80
2023-03-19T05:09:05.164Z,17.30
2023-03-19T05:15:09.594Z,17.80
2023-03-19T05:20:38.319Z,17.40
2023-03-19T05:27:02.452Z,17.70
2023-03-19T05:32:33.667Z,17.60
2023-03-19T05:37:47.774Z,17.30
2023-03-19T05:42:54.654Z,17.80
2023-03-19T05:48:11.915Z,18.60
2023-03-19T05:53:18.166Z,18.60
2023-03-19T05:58:29.385Z,18.90
2023-03-19T06:03:32.787Z,19.20
2023-03-19T06:08:41.001Z,18.70
2023-03-19T06:13:52.903Z,19.40
2023-03-19T06:18:56.367Z,19.40
2023-03-19T06:24:00.103Z,19.60
2023-03-19T06:29:07.935Z,20.20
2023-03-19T06:34:11.609Z,19.80
2023-03-19T06:39:17.165Z,20.70
2023-03-19T06:44:20.676Z,20.00
2023-03-19T06:49:23.967Z,19.90
2023-03-19T06:54:27.400Z,20.10
2023-03-19T06:59:30.875Z,20.60
2023-03-19T07:04:34.443Z,19.80
2023-03-19T07:09:37.596Z,20.00
2023-03-19T07:14:41.147Z,18.50
2023-03-19T07:19:44.474Z,21.60
2023-03-19T07:24:48.005Z,20.10
2023-03-19T07:29:51.506Z,18.70
2023-03-19T07:34:55.050Z,18.30
2023-03-19T07:39:58.817Z,16.90
2023-03-19T07:45:04.141Z,16.00
2023-03-19T07:50:08.590Z,16.40
2023-03-19T07:55:12.043Z,15.20
2023-03-19T08:00:16.451Z,14.50
2023-03-19T08:05:21.079Z,14.10
2023-03-19T08:10:24.641Z,11.90
2023-03-19T08:15:28.149Z,12.10
2023-03-19T08:20:32.100Z,11.20
2023-03-19T08:25:36.032Z,11.40
2023-03-19T08:30:40.551Z,12.10
2023-03-19T08:35:44.562Z,11.90
2023-03-19T08:40:47.915Z,11.10
2023-03-19T08:45:51.235Z,11.20
2023-03-19T08:50:59.848Z,11.40
2023-03-19T08:56:07.921Z,10.70
2023-03-19T09:01:14.700Z,10.90
2023-03-19T09:06:18.250Z,10.90
2023-03-19T09:11:23.474Z,11.50
2023-03-19T09:16:27.294Z,11.00
2023-03-19T09:21:30.694Z,10.90
2023-03-19T09:26:39.441Z,10.60
2023-03-19T09:31:45.748Z,10.50
2023-03-19T09:36:48.971Z,11.70
2023-03-19T09:42:10.509Z,11.00
2023-03-19T09:47:26.254Z,10.70
2023-03-19T09:53:10.289Z,11.10
2023-03-19T09:58:17.880Z,9.50
2023-03-19T10:03:30.505Z,9.60
2023-03-19T10:09:04.852Z,10.20
2023-03-19T10:14:21.451Z,9.80
2023-03-19T10:19:55.455Z,9.90
2023-03-19T10:24:59.790Z,9.40
2023-03-19T10:30:11.677Z,10.00
2023-03-19T10:35:36.474Z,9.70
2023-03-19T10:40:56.848Z,9.20
2023-03-19T10:46:00.321Z,8.90
2023-03-19T10:51:06.793Z,8.90
2023-03-19T10:56:22.256Z,9.20
2023-03-19T11:01:38.673Z,8.90
2023-03-19T11:06:41.931Z,8.80
2023-03-19T11:11:52.199Z,8.70
2023-03-19T11:17:14.410Z,8.30
2023-03-19T11:22:21.609Z,8.00
2023-03-19T11:27:36.002Z,8.40
2023-03-19T11:33:03.456Z,8.40
2023-03-19T11:38:18.075Z,8.30
2023-03-19T11:43:24.162Z,8.50
2023-03-19T11:48:34.520Z,8.60
2023-03-19T11:53:50.945Z,8.90
2023-03-19T11:59:27.013Z,9.30
2023-03-19T12:04:43.227Z,8.70
2023-03-19T12:09:46.420Z,8.50
2023-03-19T12:15:12.048Z,9.50
2023-03-19T12:20:25.446Z,8.90
2023-03-19T12:26:06.430Z,8.90
2023-03-19T12:31:22.201Z,9.30
2023-03-19T12:36:29.683Z,9.00
2023-03-19T12:41:37.027Z,9.10
2023-03-19T12:46:46.063Z,9.40
2023-03-19T12:51:56.503Z,8.80
2023-03-19T12:57:20.545Z,8.70
2023-03-19T13:02:42.822Z,8.50
2023-03-19T13:08:17.562Z,8.70
2023-03-19T13:13:39.517Z,9.30
2023-03-19T13:19:05.410Z,8.70
2023-03-19T13:24:27.080Z,9.70
2023-03-19T13:29:39.145Z,9.10
2023-03-19T13:34:43.152Z,8.40
2023-03-19T13:39:48.671Z,8.60
2023-03-19T13:44:55.289Z,8.80
2023-03-19T13:50:20.183Z,9.60
2023-03-19T13:55:26.829Z,9.20
2023-03-19T14:00:58.958Z,8.40
2023-03-19T14:06:02.782Z,8.40
2023-03-19T14:11:07.961Z,8.20
2023-03-19T14:16:18.770Z,8.80
2023-03-19T14:21:46.753Z,8.40
2023-03-19T14:26:50.575Z,9.10
2023-03-19T14:31:58.262Z,9.20
2023-03-19T14:37:26.178Z,12.90
2023-03-19T14:42:41.549Z,12.60
2023-03-19T14:47:44.748Z,7.80
2023-03-19T14:53:15.619Z,7.80
2023-03-19T14:58:23.273Z,7.70
2023-03-19T15:03:39.454Z,9.70
2023-03-19T15:08:43.548Z,8.10
2023-03-19T15:14:12.112Z,8.20
2023-03-19T15:19:22.671Z,7.70
2023-03-19T15:24:27.120Z,8.00
2023-03-19T15:29:32.358Z,7.70
2023-03-19T15:34:37.396Z,7.60
2023-03-19T15:39:49.076Z,7.00
2023-03-19T15:44:57.419Z,7.40
2023-03-19T15:50:23.250Z,7.80
2023-03-19T15:55:27.092Z,6.80
2023-03-19T16:00:30.515Z,6.80
2023-03-19T16:05:33.912Z,7.40
2023-03-19T16:10:43.425Z,6.90
2023-03-19T16:15:54.032Z,8.70
2023-03-19T16:21:07.703Z,9.00
2023-03-19T16:26:26.129Z,9.80
2023-03-19T16:31:33.984Z,10.60
2023-03-19T16:36:37.277Z,11.10
2023-03-19T16:41:41.802Z,11.00
2023-03-19T16:46:45.736Z,11.30
2023-03-19T16:51:48.976Z,10.90
2023-03-19T16:56:53.789Z,10.20
2023-03-19T17:02:21.107Z,12.30
2023-03-19T17:07:36.091Z,10.30
2023-03-19T17:12:43.970Z,10.10
2023-03-19T17:17:47.314Z,10.80
2023-03-19T17:22:50.718Z,10.60
2023-03-19T17:27:54.270Z,11.20
2023-03-19T17:32:58.071Z,12.20
2023-03-19T17:38:01.685Z,12.20
2023-03-19T17:43:08.405Z,12.00
2023-03-19T17:48:21.779Z,13.10
2023-03-19T17:53:25.105Z,13.40
2023-03-19T17:58:28.677Z,19.20
2023-03-19T18:03:34.059Z,18.60
2023-03-19T18:08:37.382Z,18.40
2023-03-19T18:13:42.104Z,19.50
2023-03-19T18:18:46.107Z,20.10
2023-03-19T18:23:55.497Z,24.90
2023-03-19T18:28:58.709Z,27.80
2023-03-19T18:34:05.997Z,35.10
2023-03-19T18:39:14.321Z,39.60
2023-03-19T18:44:19.370Z,37.00
2023-03-19T18:49:27.489Z,36.40
2023-03-19T19:08:05.732Z,35.30
2023-03-19T19:14:00.295Z,36.40
2023-03-19T19:19:41.921Z,37.80
2023-03-19T19:24:46.837Z,36.90
2023-03-19T19:29:50.830Z,33.60
2023-03-19T19:34:55.254Z,34.00
2023-03-19T19:39:58.774Z,38.10
2023-03-19T19:45:03.562Z,38.10
2023-03-19T19:50:10.665Z,37.20
2023-03-19T19:55:14.570Z,37.10
2023-03-19T20:00:20.198Z,36.70
2023-03-19T20:05:33.516Z,37.70
2023-03-19T20:10:37.612Z,38.50
2023-03-19T20:15:41.693Z,39.20
2023-03-19T20:20:45.271Z,42.20
2023-03-19T20:25:50.926Z,43.10
2023-03-19T20:30:54.877Z,39.90
2023-03-19T20:35:58.959Z,42.70
2023-03-19T20:41:02.570Z,42.90
2023-03-19T20:46:07.899Z,44.20
2023-03-19T20:51:20.122Z,43.50
2023-03-19T20:56:25.736Z,48.30
2023-03-19T21:01:29.365Z,47.40
2023-03-19T21:06:49.819Z,46.80
2023-03-19T21:11:56.130Z,48.20
2023-03-19T21:16:59.560Z,50.60
2023-03-19T21:22:06.870Z,49.20
2023-03-19T21:27:20.912Z,46.60
2023-03-19T21:32:24.846Z,48.40
2023-03-19T21:37:28.289Z,48.70
2023-03-19T21:42:34.061Z,49.30
2023-03-19T21:47:37.625Z,50.60
2023-03-19T21:52:56.541Z,52.00
2023-03-19T21:58:03.236Z,51.50
2023-03-19T22:03:06.947Z,53.70
2023-03-19T22:08:10.653Z,55.80
2023-03-19T22:13:26.152Z,55.70
2023-03-19T22:18:32.721Z,55.80
2023-03-19T22:23:36.137Z,56.30
2023-03-19T22:28:39.621Z,54.80
2023-03-19T22:33:42.796Z,59.20
2023-03-19T22:38:48.853Z,56.10
2023-03-19T22:43:52.477Z,59.40
2023-03-19T22:48:55.864Z,57.30
2023-03-19T22:53:59.198Z,57.70
2023-03-19T22:59:02.817Z,57.70
2023-03-19T23:04:25.608Z,54.70
2023-03-19T23:09:35.985Z,54.80
2023-03-19T23:14:50.840Z,54.10
2023-03-19T23:20:05.192Z,55.20
2023-03-19T23:25:20.085Z,57.10
2023-03-19T23:30:33.594Z,59.50
2023-03-19T23:35:40.662Z,58.60
2023-03-19T23:40:44.385Z,56.20
2023-03-19T23:45:50.366Z,55.80
2023-03-19T23:50:56.310Z,55.10
2023-03-19T23:56:09.206Z,52.80
